logo
Search for airport 
image banner adimage banner adimage banner ad
image banner ad

OSDI - Damascus / International

Located in Damascus, Syrian Arab Republic

ICAO - OSDI, IATA - DAM

Data provided by Airmate  

General information

Coordinates: N33°24'39" E36°30'48"
Elevation is 2020 feet MSL.
 
View others Airports in Damascus Governorate

Operational data

Special qualification required
Current time UTC:
Current local time:
Weather
METAR: OSDI 170500Z 00000KT CAVOK 18/09 Q1016
TAF: OSDI 170500Z 1706/1812 VRB03KT CAVOK
View NOTAMs / SUP AIP / TFR affecting this airport [VIEW]
Communications frequencies: [VIEW]

Runways:

RWY identifierQFULength (ft)Width (ft)SurfaceLDA (ft)
05R48°11811148ASP
23L228°11811148ASP
05L48°11811148ASP
23R228°11811148ASP

Airport contact information

Address: Damascus Syrian Arab Republic

Satellite view of OSDI